createdAt,value
2023-01-08T00:00:11.983Z,93.42
2023-01-08T00:01:14.134Z,94.63
2023-01-08T00:02:15.854Z,94.89
2023-01-08T00:03:17.899Z,94.72
2023-01-08T00:04:19.676Z,95.21
2023-01-08T00:05:21.547Z,95.29
2023-01-08T00:06:23.543Z,94.68
2023-01-08T00:07:25.341Z,93.62
2023-01-08T00:08:27.299Z,94.72
2023-01-08T00:09:28.901Z,94.25
2023-01-08T00:10:30.973Z,94.47
2023-01-08T00:11:32.784Z,93.90
2023-01-08T00:12:34.949Z,93.47
2023-01-08T00:13:37.144Z,93.73
2023-01-08T00:14:38.767Z,94.00
2023-01-08T00:15:40.558Z,94.31
2023-01-08T00:16:42.248Z,94.63
2023-01-08T00:17:43.977Z,94.35
2023-01-08T00:18:47.166Z,94.75
2023-01-08T00:19:48.742Z,95.14
2023-01-08T00:20:50.428Z,92.85
2023-01-08T00:21:52.431Z,92.47
2023-01-08T00:22:54.105Z,92.07
2023-01-08T00:23:55.834Z,90.46
2023-01-08T00:24:57.628Z,90.50
2023-01-08T00:26:06.924Z,90.19
2023-01-08T00:27:08.949Z,89.88
2023-01-08T00:28:10.866Z,88.04
2023-01-08T00:29:12.480Z,86.65
2023-01-08T00:30:14.387Z,87.28
2023-01-08T00:31:16.065Z,86.45
2023-01-08T00:32:17.763Z,87.58
2023-01-08T00:33:19.494Z,86.82
2023-01-08T00:34:21.107Z,87.29
2023-01-08T00:35:22.787Z,85.91
2023-01-08T00:36:24.399Z,85.91
2023-01-08T00:37:26.227Z,85.39
2023-01-08T00:38:29.776Z,85.02
2023-01-08T00:39:31.506Z,85.10
2023-01-08T00:40:34.641Z,85.02
2023-01-08T00:41:36.211Z,85.31
2023-01-08T00:42:37.842Z,85.58
2023-01-08T00:43:39.910Z,84.71
2023-01-08T00:44:41.693Z,84.80
2023-01-08T00:45:43.684Z,85.53
2023-01-08T00:46:45.397Z,85.73
2023-01-08T00:47:46.957Z,85.86
2023-01-08T00:48:48.575Z,85.53
2023-01-08T00:49:50.335Z,85.05
2023-01-08T00:50:53.840Z,85.39
2023-01-08T00:51:55.432Z,85.20
2023-01-08T00:52:57.121Z,84.41
2023-01-08T00:53:58.893Z,83.54
2023-01-08T00:55:03.730Z,83.53
2023-01-08T00:56:08.805Z,83.54
2023-01-08T00:57:10.429Z,83.40
2023-01-08T00:58:12.566Z,83.50
2023-01-08T00:59:14.267Z,83.39
2023-01-08T01:00:17.265Z,83.74
2023-01-08T01:01:18.958Z,84.46
2023-01-08T01:02:20.754Z,84.63
2023-01-08T01:03:22.617Z,85.04
2023-01-08T01:04:26.304Z,85.20
2023-01-08T01:05:28.043Z,85.23
2023-01-08T01:06:30.141Z,85.55
2023-01-08T01:08:59.543Z,85.88
2023-01-08T01:10:11.296Z,85.84
2023-01-08T01:11:24.942Z,86.26
2023-01-08T01:12:29.273Z,87.05
2023-01-08T01:13:34.820Z,87.46
2023-01-08T01:14:38.106Z,87.51
2023-01-08T01:15:43.363Z,87.45
2023-01-08T01:16:48.471Z,87.62
2023-01-08T01:17:50.257Z,87.59
2023-01-08T01:18:52.383Z,87.19
2023-01-08T01:19:53.976Z,88.16
2023-01-08T01:20:55.638Z,88.60
2023-01-08T01:21:57.470Z,88.37
2023-01-08T01:22:59.350Z,89.14
2023-01-08T01:24:06.097Z,89.41
2023-01-08T01:25:08.473Z,89.03
2023-01-08T01:26:18.384Z,89.22
2023-01-08T01:27:20.017Z,89.63
2023-01-08T01:28:21.692Z,90.68
2023-01-08T01:29:24.261Z,90.28
2023-01-08T01:30:25.841Z,91.15
2023-01-08T01:31:30.484Z,90.36
2023-01-08T01:32:33.068Z,90.45
2023-01-08T01:33:34.863Z,90.24
2023-01-08T01:34:36.800Z,90.65
2023-01-08T01:35:38.394Z,90.48
2023-01-08T01:36:40.210Z,90.54
2023-01-08T01:37:41.825Z,90.21
2023-01-08T01:38:45.398Z,90.29
2023-01-08T01:39:47.471Z,90.47
2023-01-08T01:40:49.072Z,90.59
2023-01-08T01:41:50.689Z,90.84
2023-01-08T01:42:52.274Z,91.10
2023-01-08T01:43:56.317Z,91.19
2023-01-08T01:44:57.999Z,90.86
2023-01-08T01:45:59.686Z,91.96
2023-01-08T01:47:05.970Z,92.07
2023-01-08T01:48:11.784Z,91.46
2023-01-08T01:49:22.695Z,91.35
2023-01-08T01:51:01.147Z,91.13
2023-01-08T01:52:05.877Z,90.54
2023-01-08T01:53:10.013Z,91.48
2023-01-08T01:54:13.365Z,91.26
2023-01-08T01:55:16.146Z,91.47
2023-01-08T01:56:18.150Z,91.65
2023-01-08T01:57:20.078Z,92.10
2023-01-08T01:58:24.688Z,92.84
2023-01-08T01:59:26.581Z,93.01
2023-01-08T02:00:29.361Z,92.73
2023-01-08T02:01:31.839Z,92.58
2023-01-08T02:02:34.422Z,92.03
2023-01-08T02:03:38.734Z,91.84
2023-01-08T02:04:41.302Z,92.84
2023-01-08T02:06:04.801Z,93.48
2023-01-08T02:07:18.343Z,94.75
2023-01-08T02:08:40.769Z,94.61
2023-01-08T02:10:00.802Z,95.72
2023-01-08T02:11:08.138Z,96.11
2023-01-08T02:12:33.251Z,96.18
2023-01-08T02:13:38.607Z,96.42
2023-01-08T02:14:48.473Z,97.07
2023-01-08T02:16:15.148Z,97.28
2023-01-08T02:17:24.263Z,97.86
2023-01-08T02:18:37.635Z,98.56
2023-01-08T02:19:57.360Z,98.80
2023-01-08T02:21:09.045Z,98.84
2023-01-08T02:22:32.449Z,99.89
2023-01-08T02:23:58.794Z,99.71
2023-01-08T02:25:14.788Z,99.71
2023-01-08T02:26:28.117Z,100.00
2023-01-08T02:27:32.256Z,100.00
2023-01-08T02:28:40.158Z,100.00
2023-01-08T02:29:42.329Z,99.97
2023-01-08T02:30:45.081Z,100.00
2023-01-08T02:31:47.023Z,100.00
2023-01-08T02:32:48.682Z,100.00
2023-01-08T02:33:50.415Z,99.58
2023-01-08T02:34:52.196Z,99.59
2023-01-08T02:36:13.918Z,99.99
2023-01-08T02:37:18.312Z,100.00
2023-01-08T02:38:20.134Z,100.00
2023-01-08T02:39:43.247Z,99.19
2023-01-08T02:40:57.040Z,99.13
2023-01-08T02:42:23.986Z,99.47
2023-01-08T02:43:31.479Z,99.27
2023-01-08T02:44:51.302Z,99.17
2023-01-08T02:45:59.407Z,99.05
2023-01-08T02:47:05.621Z,100.00
2023-01-08T02:48:23.144Z,100.00
2023-01-08T02:49:30.863Z,100.00
2023-01-08T02:50:38.898Z,100.00
2023-01-08T02:51:47.257Z,100.00
2023-01-08T02:52:57.506Z,100.00
2023-01-08T02:54:03.328Z,100.00
2023-01-08T02:55:05.809Z,100.00
2023-01-08T02:56:11.613Z,100.00
2023-01-08T02:57:17.362Z,100.00
2023-01-08T02:58:20.770Z,99.11
2023-01-08T02:59:24.027Z,98.78
2023-01-08T03:00:27.600Z,98.87
2023-01-08T03:01:30.075Z,99.48
2023-01-08T03:02:35.517Z,99.49
2023-01-08T03:03:41.796Z,100.00
2023-01-08T03:05:07.740Z,99.84
2023-01-08T03:06:13.326Z,99.64
2023-01-08T03:07:15.147Z,99.72
2023-01-08T03:08:18.759Z,99.66
2023-01-08T03:09:21.101Z,99.91
2023-01-08T03:10:26.401Z,99.58
2023-01-08T03:11:36.744Z,99.95
2023-01-08T03:12:53.812Z,99.69
2023-01-08T03:14:15.880Z,100.00
2023-01-08T03:15:24.683Z,100.00
2023-01-08T03:16:35.812Z,100.00
2023-01-08T03:17:43.412Z,100.00
2023-01-08T03:18:52.757Z,100.00
2023-01-08T03:19:57.886Z,100.00
2023-01-08T03:21:03.281Z,100.00
2023-01-08T03:22:09.696Z,100.00
2023-01-08T03:23:13.951Z,100.00
2023-01-08T03:24:20.571Z,100.00
2023-01-08T03:25:25.182Z,100.00
2023-01-08T03:26:27.791Z,100.00
2023-01-08T03:27:34.269Z,100.00
2023-01-08T03:28:42.167Z,100.00
2023-01-08T03:29:47.438Z,100.00
2023-01-08T03:30:52.429Z,100.00
2023-01-08T03:32:01.306Z,100.00
2023-01-08T03:33:06.246Z,99.84
2023-01-08T03:34:08.807Z,100.00
2023-01-08T03:35:15.727Z,100.00
2023-01-08T03:36:24.000Z,100.00
2023-01-08T03:37:32.325Z,100.00
2023-01-08T03:38:40.203Z,99.64
2023-01-08T03:39:51.897Z,100.00
2023-01-08T03:40:58.093Z,100.00
2023-01-08T03:42:06.606Z,99.21
2023-01-08T03:43:08.192Z,98.08
2023-01-08T03:44:09.937Z,98.46
2023-01-08T03:45:11.723Z,98.66
2023-01-08T03:46:29.017Z,98.89
2023-01-08T03:47:33.084Z,100.00
2023-01-08T03:48:36.507Z,100.00
2023-01-08T03:49:40.308Z,99.46
2023-01-08T03:50:41.952Z,99.41
2023-01-08T03:51:46.163Z,98.96
2023-01-08T03:52:47.911Z,98.76
2023-01-08T03:53:52.351Z,98.84
2023-01-08T03:54:54.088Z,99.11
2023-01-08T03:55:57.670Z,100.00
2023-01-08T03:56:59.239Z,100.00
2023-01-08T03:58:00.845Z,97.71
2023-01-08T03:59:02.612Z,98.37
2023-01-08T04:00:04.905Z,98.75
2023-01-08T04:01:06.767Z,98.62
2023-01-08T04:02:08.846Z,100.00
2023-01-08T04:03:10.548Z,100.00
2023-01-08T04:04:12.657Z,100.00
2023-01-08T04:05:14.432Z,100.00
2023-01-08T04:06:16.117Z,100.00
2023-01-08T04:07:17.740Z,100.00
2023-01-08T04:08:19.415Z,100.00
2023-01-08T04:09:21.033Z,100.00
2023-01-08T04:10:23.696Z,100.00
2023-01-08T04:11:25.352Z,100.00
2023-01-08T04:12:27.116Z,100.00
2023-01-08T04:13:28.736Z,100.00
2023-01-08T04:14:30.362Z,100.00
2023-01-08T04:15:33.539Z,100.00
2023-01-08T04:16:35.190Z,100.00
2023-01-08T04:17:37.043Z,100.00
2023-01-08T04:18:38.706Z,100.00
2023-01-08T04:19:40.385Z,100.00
2023-01-08T04:20:46.279Z,100.00
2023-01-08T04:21:51.186Z,100.00
2023-01-08T04:22:52.888Z,100.00
2023-01-08T04:23:55.138Z,100.00
2023-01-08T04:24:57.392Z,100.00
2023-01-08T04:25:58.899Z,100.00
2023-01-08T04:27:00.646Z,100.00
2023-01-08T04:28:02.218Z,100.00
2023-01-08T04:29:04.241Z,100.00
2023-01-08T04:30:06.454Z,100.00
2023-01-08T04:31:09.657Z,100.00
2023-01-08T04:32:11.396Z,100.00
2023-01-08T04:33:13.163Z,100.00
2023-01-08T04:34:14.905Z,100.00
2023-01-08T04:35:16.611Z,100.00
2023-01-08T04:36:18.233Z,100.00
2023-01-08T04:37:19.865Z,100.00
2023-01-08T04:38:21.462Z,100.00
2023-01-08T04:39:23.063Z,100.00
2023-01-08T04:40:24.777Z,100.00
2023-01-08T04:41:26.514Z,100.00
2023-01-08T04:42:28.173Z,100.00
2023-01-08T04:43:30.989Z,100.00
2023-01-08T04:44:32.613Z,100.00
2023-01-08T04:45:34.503Z,100.00
2023-01-08T04:46:36.458Z,100.00
2023-01-08T04:47:38.185Z,100.00
2023-01-08T04:48:40.342Z,100.00
2023-01-08T04:49:42.472Z,100.00
2023-01-08T04:50:44.328Z,100.00
2023-01-08T04:51:45.947Z,100.00
2023-01-08T04:52:47.627Z,100.00
2023-01-08T04:53:49.576Z,100.00
2023-01-08T04:54:51.329Z,100.00
2023-01-08T04:55:53.236Z,100.00
2023-01-08T04:56:54.907Z,100.00
2023-01-08T04:57:56.502Z,100.00
2023-01-08T04:58:59.016Z,100.00
2023-01-08T05:00:00.703Z,100.00
2023-01-08T05:01:13.049Z,100.00
2023-01-08T05:02:15.063Z,100.00
2023-01-08T05:03:17.154Z,100.00
2023-01-08T05:04:18.872Z,100.00
2023-01-08T05:05:20.446Z,100.00
2023-01-08T05:06:22.179Z,100.00
2023-01-08T05:07:24.011Z,100.00
2023-01-08T05:08:25.766Z,100.00
2023-01-08T05:09:27.486Z,100.00
2023-01-08T05:10:29.209Z,100.00
2023-01-08T05:11:30.859Z,100.00
2023-01-08T05:12:32.436Z,100.00
2023-01-08T05:13:34.103Z,100.00
2023-01-08T05:14:35.809Z,100.00
2023-01-08T05:15:37.749Z,100.00
2023-01-08T05:16:39.474Z,100.00
2023-01-08T05:17:41.362Z,100.00
2023-01-08T05:18:44.632Z,100.00
2023-01-08T05:19:46.269Z,100.00
2023-01-08T05:20:47.821Z,100.00
2023-01-08T05:21:49.688Z,100.00
2023-01-08T05:22:51.411Z,100.00
2023-01-08T05:23:53.074Z,100.00
2023-01-08T05:24:54.919Z,100.00
2023-01-08T05:25:58.869Z,100.00
2023-01-08T05:27:00.562Z,100.00
2023-01-08T05:28:02.224Z,100.00
2023-01-08T05:29:03.912Z,100.00
2023-01-08T05:30:06.232Z,100.00
2023-01-08T05:31:08.316Z,100.00
2023-01-08T05:32:19.337Z,100.00
2023-01-08T05:33:21.231Z,100.00
2023-01-08T05:34:22.866Z,100.00
2023-01-08T05:35:24.744Z,100.00
2023-01-08T05:36:26.679Z,100.00
2023-01-08T05:37:28.383Z,100.00
2023-01-08T05:38:30.057Z,100.00
2023-01-08T05:39:31.702Z,100.00
2023-01-08T05:40:33.638Z,100.00
2023-01-08T05:41:35.324Z,100.00
2023-01-08T05:42:37.172Z,100.00
2023-01-08T05:43:38.945Z,100.00
2023-01-08T05:44:40.586Z,100.00
2023-01-08T05:45:42.153Z,100.00
2023-01-08T05:46:44.256Z,100.00
2023-01-08T05:47:45.976Z,100.00
2023-01-08T05:48:47.585Z,100.00
2023-01-08T05:49:49.185Z,100.00
2023-01-08T05:50:50.774Z,100.00
2023-01-08T05:51:52.451Z,100.00
2023-01-08T05:52:54.066Z,100.00
2023-01-08T05:53:55.940Z,100.00
2023-01-08T05:55:00.044Z,100.00
2023-01-08T05:56:09.168Z,100.00
2023-01-08T05:57:11.270Z,100.00
2023-01-08T05:58:12.931Z,100.00
2023-01-08T05:59:14.684Z,100.00
2023-01-08T06:00:17.083Z,100.00
2023-01-08T06:01:18.767Z,100.00
2023-01-08T06:02:20.420Z,100.00
2023-01-08T06:03:23.244Z,100.00
2023-01-08T06:04:25.166Z,100.00
2023-01-08T06:05:27.088Z,100.00
2023-01-08T06:06:28.682Z,100.00
2023-01-08T06:07:30.552Z,100.00
2023-01-08T06:08:32.604Z,100.00
2023-01-08T06:09:34.370Z,100.00
2023-01-08T06:10:38.604Z,100.00
2023-01-08T06:11:40.207Z,100.00
2023-01-08T06:12:42.127Z,100.00
2023-01-08T06:13:44.286Z,100.00
2023-01-08T06:14:45.971Z,100.00
2023-01-08T06:15:47.665Z,100.00
2023-01-08T06:16:49.282Z,100.00
2023-01-08T06:17:50.914Z,100.00
2023-01-08T06:18:52.604Z,100.00
2023-01-08T06:19:54.300Z,100.00
2023-01-08T06:20:56.403Z,100.00
2023-01-08T06:21:58.060Z,100.00
2023-01-08T06:23:00.107Z,100.00
2023-01-08T06:24:01.815Z,100.00
2023-01-08T06:25:04.224Z,100.00
2023-01-08T06:26:06.430Z,100.00
2023-01-08T06:27:08.073Z,100.00
2023-01-08T06:28:10.014Z,100.00
2023-01-08T06:29:11.609Z,100.00
2023-01-08T06:30:13.250Z,100.00
2023-01-08T06:31:15.083Z,100.00
2023-01-08T06:32:16.719Z,100.00
2023-01-08T06:33:21.326Z,100.00
2023-01-08T06:34:23.269Z,100.00
2023-01-08T06:35:25.617Z,100.00
2023-01-08T06:36:27.303Z,100.00
2023-01-08T06:37:29.128Z,100.00
2023-01-08T06:38:32.968Z,100.00
2023-01-08T06:39:34.590Z,100.00
2023-01-08T06:40:36.268Z,100.00
2023-01-08T06:41:37.802Z,100.00
2023-01-08T06:42:39.574Z,100.00
2023-01-08T06:43:41.127Z,100.00
2023-01-08T06:44:42.776Z,100.00
2023-01-08T06:45:44.425Z,100.00
2023-01-08T06:46:46.648Z,100.00
2023-01-08T06:47:48.324Z,100.00
2023-01-08T06:48:49.984Z,100.00
2023-01-08T06:49:51.566Z,100.00
2023-01-08T06:50:53.801Z,100.00
2023-01-08T06:51:55.414Z,100.00
2023-01-08T06:52:57.305Z,100.00
2023-01-08T06:53:58.860Z,100.00
2023-01-08T06:55:00.407Z,100.00
2023-01-08T06:56:03.735Z,100.00
2023-01-08T06:57:05.420Z,100.00
2023-01-08T06:58:07.169Z,100.00
2023-01-08T06:59:08.796Z,100.00
2023-01-08T07:00:10.821Z,100.00
2023-01-08T07:01:15.698Z,100.00
2023-01-08T07:02:19.020Z,100.00
2023-01-08T07:03:21.184Z,100.00
2023-01-08T07:04:23.227Z,100.00
2023-01-08T07:05:24.895Z,100.00
2023-01-08T07:06:26.520Z,100.00
2023-01-08T07:07:28.136Z,100.00
2023-01-08T07:08:29.789Z,100.00
2023-01-08T07:09:31.538Z,100.00
2023-01-08T07:10:34.697Z,100.00
2023-01-08T07:11:36.761Z,100.00
2023-01-08T07:12:38.542Z,100.00
2023-01-08T07:13:40.181Z,100.00
2023-01-08T07:14:42.131Z,100.00
2023-01-08T07:15:43.988Z,100.00
2023-01-08T07:16:45.642Z,100.00
2023-01-08T07:17:47.290Z,100.00
2023-01-08T07:18:48.789Z,100.00
2023-01-08T07:19:50.537Z,100.00
2023-01-08T07:20:52.292Z,100.00
2023-01-08T07:21:54.053Z,100.00
2023-01-08T07:22:55.675Z,100.00
2023-01-08T07:23:57.283Z,100.00
2023-01-08T07:24:58.875Z,100.00
2023-01-08T07:26:05.095Z,100.00
2023-01-08T07:27:06.724Z,100.00
2023-01-08T07:28:12.438Z,100.00
2023-01-08T07:29:14.163Z,100.00
2023-01-08T07:30:28.935Z,100.00
2023-01-08T07:31:31.585Z,100.00
2023-01-08T07:32:33.188Z,100.00
2023-01-08T07:33:35.320Z,100.00
2023-01-08T07:34:37.269Z,100.00
2023-01-08T07:35:39.175Z,100.00
2023-01-08T07:36:40.789Z,100.00
2023-01-08T07:37:43.036Z,100.00
2023-01-08T07:38:44.596Z,100.00
2023-01-08T07:39:46.501Z,100.00
2023-01-08T07:40:48.657Z,100.00
2023-01-08T07:41:50.471Z,100.00
2023-01-08T07:43:03.421Z,100.00
2023-01-08T07:44:05.103Z,100.00
2023-01-08T07:45:08.184Z,100.00
2023-01-08T07:46:10.523Z,100.00
2023-01-08T07:47:12.227Z,100.00
2023-01-08T07:48:16.670Z,100.00
2023-01-08T07:49:18.344Z,100.00
2023-01-08T07:50:20.018Z,100.00
2023-01-08T07:51:21.816Z,100.00
2023-01-08T07:52:23.474Z,100.00
2023-01-08T07:53:24.991Z,100.00
2023-01-08T07:54:26.658Z,100.00
2023-01-08T07:55:30.770Z,100.00
2023-01-08T07:56:32.683Z,100.00
2023-01-08T07:57:34.384Z,100.00
2023-01-08T07:58:36.734Z,100.00
2023-01-08T07:59:38.734Z,100.00
2023-01-08T08:00:40.569Z,100.00
2023-01-08T08:01:42.338Z,100.00
2023-01-08T08:02:44.173Z,100.00
2023-01-08T08:03:46.379Z,100.00
2023-01-08T08:04:48.002Z,100.00
2023-01-08T08:05:50.069Z,100.00
2023-01-08T08:06:52.020Z,100.00
2023-01-08T08:07:53.748Z,100.00
2023-01-08T08:08:57.995Z,100.00
2023-01-08T08:09:59.688Z,100.00
2023-01-08T08:11:01.550Z,100.00
2023-01-08T08:12:03.327Z,100.00
2023-01-08T08:13:05.025Z,100.00
2023-01-08T08:14:07.293Z,100.00
2023-01-08T08:15:09.668Z,100.00
2023-01-08T08:16:11.924Z,100.00
2023-01-08T08:17:13.636Z,100.00
2023-01-08T08:18:15.243Z,100.00
2023-01-08T08:19:17.007Z,100.00
2023-01-08T08:20:18.628Z,100.00
2023-01-08T08:21:20.236Z,100.00
2023-01-08T08:22:21.853Z,100.00
2023-01-08T08:23:23.897Z,100.00
2023-01-08T08:24:25.627Z,100.00
2023-01-08T08:25:27.540Z,100.00
2023-01-08T08:26:29.201Z,100.00
2023-01-08T08:27:30.822Z,100.00
2023-01-08T08:28:32.411Z,100.00
2023-01-08T08:29:34.082Z,100.00
2023-01-08T08:30:36.516Z,100.00
2023-01-08T08:31:38.250Z,100.00
2023-01-08T08:32:39.873Z,100.00
2023-01-08T08:33:42.388Z,100.00
2023-01-08T08:34:44.306Z,100.00
2023-01-08T08:35:51.063Z,100.00
2023-01-08T08:36:53.030Z,100.00
2023-01-08T08:37:55.942Z,100.00
2023-01-08T08:38:57.672Z,100.00
2023-01-08T08:39:59.311Z,100.00
2023-01-08T08:41:01.411Z,100.00
2023-01-08T08:42:03.002Z,100.00
2023-01-08T08:43:05.390Z,100.00
2023-01-08T08:44:07.171Z,100.00
2023-01-08T08:45:09.523Z,100.00
2023-01-08T08:46:11.254Z,100.00
2023-01-08T08:47:13.257Z,100.00
2023-01-08T08:48:16.940Z,100.00
2023-01-08T08:49:18.636Z,100.00
2023-01-08T08:50:21.458Z,100.00
2023-01-08T08:51:23.038Z,100.00
2023-01-08T08:52:24.735Z,100.00
2023-01-08T08:53:27.754Z,100.00
2023-01-08T08:54:29.486Z,100.00
2023-01-08T08:55:33.638Z,100.00
2023-01-08T08:56:36.018Z,100.00
2023-01-08T08:57:37.624Z,100.00
2023-01-08T08:58:41.816Z,100.00
2023-01-08T08:59:43.530Z,100.00
2023-01-08T09:00:45.352Z,100.00
2023-01-08T09:01:47.281Z,100.00
2023-01-08T09:02:51.233Z,100.00
2023-01-08T09:03:52.879Z,100.00
2023-01-08T09:04:54.511Z,100.00
2023-01-08T09:05:58.410Z,100.00
2023-01-08T09:07:01.354Z,100.00
2023-01-08T09:08:03.189Z,100.00
2023-01-08T09:09:05.059Z,100.00
2023-01-08T09:10:07.427Z,100.00
2023-01-08T09:11:09.146Z,100.00
2023-01-08T09:12:11.142Z,100.00
2023-01-08T09:13:12.731Z,100.00
2023-01-08T09:14:14.493Z,100.00
2023-01-08T09:15:16.438Z,100.00
2023-01-08T09:16:18.661Z,100.00
2023-01-08T09:17:21.640Z,100.00
2023-01-08T09:18:23.293Z,100.00
2023-01-08T09:19:25.030Z,100.00
2023-01-08T09:20:28.343Z,100.00
2023-01-08T09:21:29.962Z,100.00
2023-01-08T09:22:31.661Z,100.00
2023-01-08T09:23:36.963Z,100.00
2023-01-08T09:24:38.611Z,100.00
2023-01-08T09:25:40.215Z,100.00
2023-01-08T09:26:41.876Z,100.00
2023-01-08T09:27:43.859Z,100.00
2023-01-08T09:28:45.521Z,100.00
2023-01-08T09:29:47.228Z,100.00
2023-01-08T09:30:48.808Z,100.00
2023-01-08T09:31:51.019Z,100.00
2023-01-08T09:32:57.432Z,100.00
2023-01-08T09:33:59.232Z,100.00
2023-01-08T09:35:00.892Z,100.00
2023-01-08T09:36:11.801Z,100.00
2023-01-08T09:37:13.412Z,100.00
2023-01-08T09:38:15.101Z,100.00
2023-01-08T09:39:17.271Z,100.00
2023-01-08T09:40:21.078Z,100.00
2023-01-08T09:41:28.374Z,100.00
2023-01-08T09:42:31.487Z,100.00
2023-01-08T09:43:37.426Z,100.00
2023-01-08T09:44:41.939Z,100.00
2023-01-08T09:45:46.033Z,100.00
2023-01-08T09:46:49.437Z,100.00
2023-01-08T09:47:51.577Z,100.00
2023-01-08T09:48:56.689Z,100.00
2023-01-08T09:50:19.668Z,100.00
2023-01-08T09:51:25.156Z,100.00
2023-01-08T09:52:27.101Z,100.00
2023-01-08T09:53:35.611Z,100.00
2023-01-08T09:54:57.607Z,100.00
2023-01-08T10:00:14.331Z,100.00
2023-01-08T10:02:13.092Z,100.00
2023-01-08T10:07:59.371Z,100.00
2023-01-08T10:12:03.408Z,100.00
2023-01-08T10:13:05.298Z,100.00
2023-01-08T10:27:52.896Z,100.00
2023-01-08T10:29:06.933Z,100.00
2023-01-08T10:30:15.050Z,100.00
2023-01-08T10:31:17.214Z,100.00
2023-01-08T10:32:34.372Z,100.00
2023-01-08T10:33:44.828Z,100.00
2023-01-08T10:34:56.879Z,100.00
2023-01-08T10:36:09.544Z,100.00
2023-01-08T10:37:36.927Z,100.00
2023-01-08T10:38:48.217Z,100.00
2023-01-08T10:39:52.762Z,100.00
2023-01-08T10:40:58.611Z,100.00
2023-01-08T10:42:06.466Z,100.00
2023-01-08T10:43:18.856Z,100.00
2023-01-08T10:44:23.219Z,100.00
2023-01-08T10:45:28.741Z,100.00
2023-01-08T10:48:00.703Z,100.00
2023-01-08T10:49:06.949Z,100.00
2023-01-08T10:50:28.218Z,100.00
2023-01-08T10:51:32.804Z,100.00
2023-01-08T10:52:37.304Z,100.00
2023-01-08T10:53:41.690Z,100.00
2023-01-08T10:54:44.406Z,100.00
2023-01-08T10:55:57.212Z,100.00
2023-01-08T10:57:02.368Z,100.00
2023-01-08T10:58:15.563Z,100.00
2023-01-08T10:59:21.448Z,100.00
2023-01-08T11:00:43.808Z,100.00
2023-01-08T11:01:50.454Z,100.00
2023-01-08T11:02:53.272Z,100.00
2023-01-08T11:19:35.281Z,100.00
2023-01-08T11:20:39.419Z,100.00
2023-01-08T11:21:41.249Z,100.00
2023-01-08T11:22:43.080Z,100.00
2023-01-08T11:23:45.282Z,100.00
2023-01-08T11:24:49.445Z,100.00
2023-01-08T11:26:05.281Z,100.00
2023-01-08T11:27:36.291Z,100.00
2023-01-08T11:29:00.475Z,100.00
2023-01-08T11:30:06.615Z,100.00
2023-01-08T11:31:18.031Z,100.00
2023-01-08T11:32:41.387Z,100.00
2023-01-08T11:33:47.696Z,100.00
2023-01-08T11:34:57.327Z,100.00
2023-01-08T11:36:10.375Z,100.00
2023-01-08T11:37:36.366Z,100.00
2023-01-08T11:38:38.581Z,100.00
2023-01-08T11:39:40.465Z,100.00
2023-01-08T11:41:09.249Z,100.00
2023-01-08T11:42:29.704Z,100.00
2023-01-08T11:43:47.362Z,100.00
2023-01-08T11:45:00.712Z,100.00
2023-01-08T11:46:42.302Z,100.00
2023-01-08T11:48:19.541Z,100.00
2023-01-08T11:49:44.662Z,100.00
2023-01-08T11:51:04.620Z,100.00
2023-01-08T11:52:45.248Z,100.00
2023-01-08T11:54:01.900Z,100.00
2023-01-08T11:55:32.275Z,100.00
2023-01-08T11:56:57.274Z,100.00
2023-01-08T11:58:39.404Z,100.00
2023-01-08T12:00:15.279Z,100.00
2023-01-08T12:01:43.642Z,100.00
2023-01-08T12:02:56.115Z,100.00
2023-01-08T12:04:23.789Z,100.00
2023-01-08T12:05:26.633Z,100.00
2023-01-08T12:06:32.819Z,100.00
2023-01-08T12:07:50.244Z,100.00
2023-01-08T12:09:29.255Z,100.00
2023-01-08T12:10:49.944Z,100.00
2023-01-08T12:12:12.613Z,100.00
2023-01-08T12:13:21.060Z,100.00
2023-01-08T12:14:48.035Z,100.00
2023-01-08T12:16:03.489Z,100.00
2023-01-08T12:17:39.521Z,100.00
2023-01-08T12:18:54.604Z,100.00
2023-01-08T12:20:30.323Z,100.00
2023-01-08T12:22:22.885Z,100.00
2023-01-08T12:23:50.528Z,100.00
2023-01-08T12:40:41.839Z,100.00
2023-01-08T12:41:48.455Z,100.00
2023-01-08T12:43:00.512Z,100.00
2023-01-08T12:44:06.206Z,100.00
2023-01-08T12:45:20.461Z,100.00
2023-01-08T12:46:26.574Z,100.00
2023-01-08T12:47:33.142Z,100.00
2023-01-08T12:48:36.895Z,100.00
2023-01-08T12:49:48.362Z,100.00
2023-01-08T12:51:21.464Z,100.00
2023-01-08T13:26:30.235Z,99.65
2023-01-08T13:27:32.466Z,98.96
2023-01-08T13:28:37.063Z,100.00
2023-01-08T13:29:42.713Z,100.00
2023-01-08T13:30:49.126Z,98.48
2023-01-08T13:32:03.651Z,97.94
2023-01-08T13:36:23.424Z,96.73
2023-01-08T13:37:27.783Z,97.09
2023-01-08T13:38:29.919Z,96.29
2023-01-08T13:39:34.887Z,94.96
2023-01-08T13:40:57.501Z,93.55
2023-01-08T13:42:11.574Z,93.10
2023-01-08T13:43:32.673Z,92.64
2023-01-08T13:44:43.261Z,93.53
2023-01-08T13:48:25.109Z,94.11
2023-01-08T13:49:36.037Z,94.28
2023-01-08T13:50:38.839Z,93.12
2023-01-08T13:51:46.457Z,93.30
2023-01-08T13:52:56.616Z,93.70
2023-01-08T13:54:08.101Z,94.34
2023-01-08T13:55:25.499Z,94.03
2023-01-08T13:56:32.300Z,93.79
2023-01-08T13:57:42.671Z,93.96
2023-01-08T13:58:52.291Z,94.10
2023-01-08T14:00:00.592Z,95.81
2023-01-08T14:01:05.490Z,95.07
2023-01-08T14:02:28.346Z,93.71
2023-01-08T14:03:35.786Z,93.88
2023-01-08T14:04:38.543Z,94.10
2023-01-08T14:05:41.217Z,92.07
2023-01-08T14:06:43.655Z,90.82
2023-01-08T14:07:45.820Z,91.64
2023-01-08T14:09:04.684Z,91.76
2023-01-08T14:10:09.326Z,92.81
2023-01-08T14:11:11.433Z,92.14
2023-01-08T14:12:16.774Z,92.93
2023-01-08T14:13:24.765Z,91.63
2023-01-08T14:14:26.640Z,92.50
2023-01-08T14:15:29.343Z,91.27
2023-01-08T14:16:33.488Z,94.45
2023-01-08T14:17:36.054Z,92.92
2023-01-08T14:18:41.467Z,93.30
2023-01-08T14:19:44.507Z,93.98
2023-01-08T14:20:51.336Z,94.15
2023-01-08T14:21:56.129Z,93.41
2023-01-08T14:22:58.057Z,94.02
2023-01-08T14:24:00.256Z,94.58
2023-01-08T14:25:06.353Z,96.20
2023-01-08T14:26:14.560Z,96.24
2023-01-08T14:27:26.117Z,96.88
2023-01-08T14:28:28.220Z,95.46
2023-01-08T14:29:32.963Z,96.61
2023-01-08T14:30:35.811Z,97.21
2023-01-08T14:31:37.726Z,96.27
2023-01-08T14:32:43.762Z,95.88
2023-01-08T14:33:47.036Z,96.42
2023-01-08T14:34:52.276Z,95.07
2023-01-08T14:35:55.708Z,94.96
2023-01-08T14:36:58.345Z,95.44
2023-01-08T14:38:02.442Z,94.10
2023-01-08T14:39:12.621Z,93.84
2023-01-08T14:40:16.898Z,94.53
2023-01-08T14:41:54.757Z,95.92
2023-01-08T14:42:59.489Z,94.33
2023-01-08T14:44:01.235Z,94.46
2023-01-08T14:45:36.848Z,94.36
2023-01-08T14:46:38.627Z,95.54
2023-01-08T14:47:49.526Z,95.58
2023-01-08T14:48:54.511Z,95.03
2023-01-08T14:49:57.539Z,94.42
2023-01-08T14:51:09.323Z,94.79
2023-01-08T14:52:15.239Z,94.90
2023-01-08T14:53:26.093Z,94.68
2023-01-08T14:54:33.530Z,94.43
2023-01-08T14:55:46.857Z,94.22
2023-01-08T14:56:51.302Z,96.25
2023-01-08T14:57:56.592Z,94.59
2023-01-08T14:58:59.890Z,95.94
2023-01-08T15:00:02.700Z,97.34
2023-01-08T15:01:15.676Z,95.45
2023-01-08T15:02:29.541Z,96.22
2023-01-08T15:03:38.024Z,96.21
2023-01-08T15:04:39.926Z,96.60
2023-01-08T15:05:49.391Z,97.54
2023-01-08T15:06:52.871Z,97.09
2023-01-08T15:08:23.709Z,97.93
2023-01-08T15:09:30.268Z,98.36
2023-01-08T15:10:36.765Z,96.53
2023-01-08T15:11:52.691Z,97.66
2023-01-08T15:13:00.351Z,97.61
2023-01-08T15:17:46.116Z,98.03
2023-01-08T15:19:19.094Z,98.33
2023-01-08T15:20:25.303Z,97.88
2023-01-08T15:21:27.606Z,97.55
2023-01-08T15:22:33.343Z,98.64
2023-01-08T15:23:42.388Z,98.11
2023-01-08T15:24:54.549Z,97.79
2023-01-08T15:25:56.870Z,97.41
2023-01-08T15:27:00.148Z,98.62
2023-01-08T15:28:04.400Z,98.63
2023-01-08T15:29:06.973Z,98.23
2023-01-08T15:30:26.556Z,97.88
2023-01-08T15:31:31.297Z,99.27
2023-01-08T15:32:37.160Z,97.96